sensor_id;sensor_type;location;lat;lon;timestamp;P1;durP1;ratioP1;P2;durP2;ratioP2
20976;SDS011;10647;51.016;3.720;2023-06-10T00:02:22;9.45;;;7.03;;
20976;SDS011;10647;51.016;3.720;2023-06-10T00:04:49;9.85;;;7.28;;
20976;SDS011;10647;51.016;3.720;2023-06-10T00:07:18;9.08;;;7.20;;
20976;SDS011;10647;51.016;3.720;2023-06-10T00:09:46;12.13;;;7.45;;
20976;SDS011;10647;51.016;3.720;2023-06-10T00:12:13;10.98;;;6.95;;
20976;SDS011;10647;51.016;3.720;2023-06-10T00:14:42;9.78;;;7.20;;
20976;SDS011;10647;51.016;3.720;2023-06-10T00:17:10;11.53;;;7.42;;
20976;SDS011;10647;51.016;3.720;2023-06-10T00:19:37;9.53;;;7.17;;
20976;SDS011;10647;51.016;3.720;2023-06-10T00:22:07;10.85;;;8.08;;
20976;SDS011;10647;51.016;3.720;2023-06-10T00:24:36;10.55;;;7.33;;
20976;SDS011;10647;51.016;3.720;2023-06-10T00:27:04;10.23;;;7.55;;
20976;SDS011;10647;51.016;3.720;2023-06-10T00:29:33;9.98;;;7.78;;
20976;SDS011;10647;51.016;3.720;2023-06-10T00:32:02;13.45;;;7.83;;
20976;SDS011;10647;51.016;3.720;2023-06-10T00:34:30;10.35;;;8.13;;
20976;SDS011;10647;51.016;3.720;2023-06-10T00:36:58;8.43;;;7.53;;
20976;SDS011;10647;51.016;3.720;2023-06-10T00:39:25;9.28;;;7.62;;
20976;SDS011;10647;51.016;3.720;2023-06-10T00:41:53;13.50;;;8.30;;
20976;SDS011;10647;51.016;3.720;2023-06-10T00:44:20;10.00;;;7.70;;
20976;SDS011;10647;51.016;3.720;2023-06-10T00:46:48;8.48;;;7.53;;
20976;SDS011;10647;51.016;3.720;2023-06-10T00:49:17;13.32;;;8.63;;
20976;SDS011;10647;51.016;3.720;2023-06-10T00:51:45;8.88;;;7.67;;
20976;SDS011;10647;51.016;3.720;2023-06-10T00:54:13;11.33;;;7.85;;
20976;SDS011;10647;51.016;3.720;2023-06-10T00:56:41;10.58;;;7.80;;
20976;SDS011;10647;51.016;3.720;2023-06-10T00:59:09;12.70;;;7.97;;
20976;SDS011;10647;51.016;3.720;2023-06-10T01:01:37;11.48;;;7.72;;
20976;SDS011;10647;51.016;3.720;2023-06-10T01:04:05;13.43;;;8.20;;
20976;SDS011;10647;51.016;3.720;2023-06-10T01:09:55;11.00;;;7.78;;
20976;SDS011;10647;51.016;3.720;2023-06-10T01:12:49;10.30;;;7.35;;
20976;SDS011;10647;51.016;3.720;2023-06-10T01:15:34;8.33;;;7.47;;
20976;SDS011;10647;51.016;3.720;2023-06-10T01:18:03;9.65;;;7.65;;
20976;SDS011;10647;51.016;3.720;2023-06-10T01:20:34;8.33;;;7.35;;
20976;SDS011;10647;51.016;3.720;2023-06-10T01:23:04;14.13;;;7.72;;
20976;SDS011;10647;51.016;3.720;2023-06-10T01:25:32;9.45;;;7.85;;
20976;SDS011;10647;51.016;3.720;2023-06-10T01:28:07;11.93;;;8.10;;
20976;SDS011;10647;51.016;3.720;2023-06-10T01:30:37;13.43;;;8.15;;
20976;SDS011;10647;51.016;3.720;2023-06-10T01:33:19;12.73;;;8.43;;
20976;SDS011;10647;51.016;3.720;2023-06-10T01:35:48;9.63;;;7.85;;
20976;SDS011;10647;51.016;3.720;2023-06-10T01:38:25;12.70;;;7.95;;
20976;SDS011;10647;51.016;3.720;2023-06-10T01:46:04;11.97;;;7.55;;
20976;SDS011;10647;51.016;3.720;2023-06-10T01:48:32;18.12;;;8.45;;
20976;SDS011;10647;51.016;3.720;2023-06-10T01:51:05;12.00;;;7.95;;
20976;SDS011;10647;51.016;3.720;2023-06-10T01:53:33;11.50;;;7.75;;
20976;SDS011;10647;51.016;3.720;2023-06-10T02:02:39;13.05;;;8.38;;
20976;SDS011;10647;51.016;3.720;2023-06-10T02:05:06;10.30;;;8.18;;
20976;SDS011;10647;51.016;3.720;2023-06-10T02:07:34;11.65;;;8.30;;
20976;SDS011;10647;51.016;3.720;2023-06-10T02:10:02;9.33;;;8.15;;
20976;SDS011;10647;51.016;3.720;2023-06-10T02:12:32;9.08;;;8.13;;
20976;SDS011;10647;51.016;3.720;2023-06-10T02:17:32;9.93;;;7.97;;
20976;SDS011;10647;51.016;3.720;2023-06-10T02:20:06;11.12;;;8.10;;
20976;SDS011;10647;51.016;3.720;2023-06-10T02:22:42;11.75;;;8.70;;
20976;SDS011;10647;51.016;3.720;2023-06-10T02:25:11;10.95;;;8.20;;
20976;SDS011;10647;51.016;3.720;2023-06-10T02:27:42;11.73;;;9.15;;
20976;SDS011;10647;51.016;3.720;2023-06-10T02:30:09;12.43;;;8.50;;
20976;SDS011;10647;51.016;3.720;2023-06-10T02:35:44;13.30;;;8.53;;
20976;SDS011;10647;51.016;3.720;2023-06-10T02:38:12;9.50;;;8.30;;
20976;SDS011;10647;51.016;3.720;2023-06-10T02:40:39;12.18;;;8.60;;
20976;SDS011;10647;51.016;3.720;2023-06-10T02:43:07;12.95;;;8.78;;
20976;SDS011;10647;51.016;3.720;2023-06-10T02:45:35;11.22;;;8.65;;
20976;SDS011;10647;51.016;3.720;2023-06-10T02:50:57;9.73;;;8.73;;
20976;SDS011;10647;51.016;3.720;2023-06-10T02:53:30;11.90;;;8.90;;
20976;SDS011;10647;51.016;3.720;2023-06-10T02:56:04;12.95;;;8.78;;
20976;SDS011;10647;51.016;3.720;2023-06-10T02:58:32;12.18;;;8.78;;
20976;SDS011;10647;51.016;3.720;2023-06-10T03:00:59;13.95;;;8.88;;
20976;SDS011;10647;51.016;3.720;2023-06-10T03:03:27;13.50;;;9.20;;
20976;SDS011;10647;51.016;3.720;2023-06-10T03:05:56;14.28;;;9.40;;
20976;SDS011;10647;51.016;3.720;2023-06-10T03:08:24;13.58;;;9.15;;
20976;SDS011;10647;51.016;3.720;2023-06-10T03:10:52;12.95;;;9.53;;
20976;SDS011;10647;51.016;3.720;2023-06-10T03:13:19;11.53;;;9.45;;
20976;SDS011;10647;51.016;3.720;2023-06-10T03:15:47;13.43;;;9.20;;
20976;SDS011;10647;51.016;3.720;2023-06-10T03:20:58;11.68;;;9.15;;
20976;SDS011;10647;51.016;3.720;2023-06-10T03:23:26;13.93;;;9.85;;
20976;SDS011;10647;51.016;3.720;2023-06-10T03:28:38;16.07;;;9.95;;
20976;SDS011;10647;51.016;3.720;2023-06-10T03:31:07;12.60;;;9.63;;
20976;SDS011;10647;51.016;3.720;2023-06-10T03:33:35;13.70;;;9.35;;
20976;SDS011;10647;51.016;3.720;2023-06-10T03:36:09;11.10;;;9.38;;
20976;SDS011;10647;51.016;3.720;2023-06-10T03:38:36;16.00;;;9.25;;
20976;SDS011;10647;51.016;3.720;2023-06-10T03:41:04;14.00;;;9.70;;
20976;SDS011;10647;51.016;3.720;2023-06-10T03:43:31;13.95;;;9.55;;
20976;SDS011;10647;51.016;3.720;2023-06-10T03:45:59;11.80;;;9.60;;
20976;SDS011;10647;51.016;3.720;2023-06-10T03:48:27;12.82;;;10.00;;
20976;SDS011;10647;51.016;3.720;2023-06-10T03:50:56;10.60;;;9.33;;
20976;SDS011;10647;51.016;3.720;2023-06-10T03:53:25;13.40;;;9.18;;
20976;SDS011;10647;51.016;3.720;2023-06-10T03:55:52;14.60;;;9.78;;
20976;SDS011;10647;51.016;3.720;2023-06-10T03:58:21;14.13;;;9.95;;
20976;SDS011;10647;51.016;3.720;2023-06-10T04:00:49;12.85;;;10.03;;
20976;SDS011;10647;51.016;3.720;2023-06-10T04:03:16;12.10;;;9.93;;
20976;SDS011;10647;51.016;3.720;2023-06-10T04:05:45;12.23;;;9.80;;
20976;SDS011;10647;51.016;3.720;2023-06-10T04:08:13;12.80;;;9.65;;
20976;SDS011;10647;51.016;3.720;2023-06-10T04:10:40;12.25;;;9.80;;
20976;SDS011;10647;51.016;3.720;2023-06-10T04:13:08;14.65;;;10.88;;
20976;SDS011;10647;51.016;3.720;2023-06-10T04:15:39;13.05;;;9.88;;
20976;SDS011;10647;51.016;3.720;2023-06-10T04:18:06;15.58;;;10.20;;
20976;SDS011;10647;51.016;3.720;2023-06-10T04:20:34;11.80;;;9.80;;
20976;SDS011;10647;51.016;3.720;2023-06-10T04:23:01;15.20;;;10.50;;
20976;SDS011;10647;51.016;3.720;2023-06-10T04:25:29;15.60;;;10.28;;
20976;SDS011;10647;51.016;3.720;2023-06-10T04:27:56;15.72;;;9.93;;
20976;SDS011;10647;51.016;3.720;2023-06-10T04:30:24;11.65;;;9.63;;
20976;SDS011;10647;51.016;3.720;2023-06-10T04:32:51;13.45;;;9.78;;
20976;SDS011;10647;51.016;3.720;2023-06-10T04:35:20;15.03;;;9.93;;
20976;SDS011;10647;51.016;3.720;2023-06-10T04:37:47;15.68;;;10.08;;
20976;SDS011;10647;51.016;3.720;2023-06-10T04:40:16;15.95;;;10.90;;
20976;SDS011;10647;51.016;3.720;2023-06-10T04:42:43;14.20;;;9.63;;
20976;SDS011;10647;51.016;3.720;2023-06-10T04:45:11;15.10;;;10.50;;
20976;SDS011;10647;51.016;3.720;2023-06-10T04:47:38;14.50;;;9.95;;
20976;SDS011;10647;51.016;3.720;2023-06-10T04:50:06;14.83;;;9.63;;
20976;SDS011;10647;51.016;3.720;2023-06-10T04:52:35;15.20;;;10.05;;
20976;SDS011;10647;51.016;3.720;2023-06-10T04:55:03;14.75;;;10.45;;
20976;SDS011;10647;51.016;3.720;2023-06-10T05:00:01;13.00;;;10.08;;
20976;SDS011;10647;51.016;3.720;2023-06-10T05:02:37;13.68;;;9.93;;
20976;SDS011;10647;51.016;3.720;2023-06-10T05:05:05;12.20;;;10.23;;
20976;SDS011;10647;51.016;3.720;2023-06-10T05:10:21;11.30;;;9.90;;
20976;SDS011;10647;51.016;3.720;2023-06-10T05:12:54;15.95;;;10.43;;
20976;SDS011;10647;51.016;3.720;2023-06-10T05:15:22;15.40;;;10.35;;
20976;SDS011;10647;51.016;3.720;2023-06-10T05:17:52;13.15;;;10.08;;
20976;SDS011;10647;51.016;3.720;2023-06-10T05:20:20;13.90;;;10.38;;
20976;SDS011;10647;51.016;3.720;2023-06-10T05:22:47;16.15;;;10.88;;
20976;SDS011;10647;51.016;3.720;2023-06-10T05:25:15;12.33;;;10.05;;
20976;SDS011;10647;51.016;3.720;2023-06-10T05:27:44;15.75;;;11.40;;
20976;SDS011;10647;51.016;3.720;2023-06-10T05:30:12;13.22;;;10.68;;
20976;SDS011;10647;51.016;3.720;2023-06-10T05:32:40;12.43;;;10.20;;
20976;SDS011;10647;51.016;3.720;2023-06-10T05:35:07;13.05;;;9.65;;
20976;SDS011;10647;51.016;3.720;2023-06-10T05:37:36;13.60;;;10.03;;
20976;SDS011;10647;51.016;3.720;2023-06-10T05:40:03;15.25;;;10.78;;
20976;SDS011;10647;51.016;3.720;2023-06-10T05:42:32;14.10;;;10.30;;
20976;SDS011;10647;51.016;3.720;2023-06-10T05:45:05;13.53;;;10.10;;
20976;SDS011;10647;51.016;3.720;2023-06-10T05:47:33;12.30;;;10.25;;
20976;SDS011;10647;51.016;3.720;2023-06-10T05:50:00;11.70;;;10.23;;
20976;SDS011;10647;51.016;3.720;2023-06-10T05:52:28;13.60;;;9.98;;
20976;SDS011;10647;51.016;3.720;2023-06-10T05:54:56;16.05;;;10.40;;
20976;SDS011;10647;51.016;3.720;2023-06-10T05:57:25;13.08;;;9.95;;
20976;SDS011;10647;51.016;3.720;2023-06-10T05:59:52;12.80;;;10.08;;
20976;SDS011;10647;51.016;3.720;2023-06-10T06:02:26;13.22;;;10.68;;
20976;SDS011;10647;51.016;3.720;2023-06-10T06:04:53;13.95;;;9.78;;
20976;SDS011;10647;51.016;3.720;2023-06-10T06:07:21;11.45;;;9.50;;
20976;SDS011;10647;51.016;3.720;2023-06-10T06:09:52;12.63;;;10.03;;
20976;SDS011;10647;51.016;3.720;2023-06-10T06:12:20;12.20;;;9.28;;
20976;SDS011;10647;51.016;3.720;2023-06-10T06:17:18;12.05;;;10.35;;
20976;SDS011;10647;51.016;3.720;2023-06-10T06:19:45;13.43;;;9.85;;
20976;SDS011;10647;51.016;3.720;2023-06-10T06:22:13;13.45;;;9.80;;
20976;SDS011;10647;51.016;3.720;2023-06-10T06:24:42;11.25;;;9.48;;
20976;SDS011;10647;51.016;3.720;2023-06-10T06:27:09;12.73;;;9.68;;
20976;SDS011;10647;51.016;3.720;2023-06-10T06:29:37;12.50;;;9.98;;
20976;SDS011;10647;51.016;3.720;2023-06-10T06:32:04;12.58;;;9.45;;
20976;SDS011;10647;51.016;3.720;2023-06-10T06:34:32;14.18;;;9.60;;
20976;SDS011;10647;51.016;3.720;2023-06-10T06:37:00;13.20;;;9.15;;
20976;SDS011;10647;51.016;3.720;2023-06-10T06:39:27;12.60;;;9.08;;
20976;SDS011;10647;51.016;3.720;2023-06-10T06:41:55;14.10;;;9.25;;
20976;SDS011;10647;51.016;3.720;2023-06-10T06:44:22;11.88;;;9.88;;
20976;SDS011;10647;51.016;3.720;2023-06-10T06:46:52;12.65;;;8.88;;
20976;SDS011;10647;51.016;3.720;2023-06-10T06:49:20;11.48;;;9.00;;
20976;SDS011;10647;51.016;3.720;2023-06-10T06:51:47;14.58;;;8.80;;
20976;SDS011;10647;51.016;3.720;2023-06-10T06:54:16;14.85;;;9.50;;
20976;SDS011;10647;51.016;3.720;2023-06-10T06:56:43;10.93;;;8.80;;
20976;SDS011;10647;51.016;3.720;2023-06-10T06:59:11;13.05;;;9.13;;
20976;SDS011;10647;51.016;3.720;2023-06-10T07:01:39;12.63;;;9.70;;
20976;SDS011;10647;51.016;3.720;2023-06-10T07:04:07;13.25;;;9.20;;
20976;SDS011;10647;51.016;3.720;2023-06-10T07:06:34;12.88;;;9.50;;
20976;SDS011;10647;51.016;3.720;2023-06-10T07:09:03;13.38;;;9.15;;
20976;SDS011;10647;51.016;3.720;2023-06-10T07:11:32;15.60;;;9.43;;
20976;SDS011;10647;51.016;3.720;2023-06-10T07:14:00;11.65;;;9.20;;
20976;SDS011;10647;51.016;3.720;2023-06-10T07:16:27;13.98;;;9.20;;
20976;SDS011;10647;51.016;3.720;2023-06-10T07:18:55;12.35;;;8.95;;
20976;SDS011;10647;51.016;3.720;2023-06-10T07:21:23;11.68;;;8.88;;
20976;SDS011;10647;51.016;3.720;2023-06-10T07:23:52;12.45;;;9.05;;
20976;SDS011;10647;51.016;3.720;2023-06-10T07:26:22;13.30;;;9.08;;
20976;SDS011;10647;51.016;3.720;2023-06-10T07:28:49;11.90;;;8.63;;
20976;SDS011;10647;51.016;3.720;2023-06-10T07:31:17;12.10;;;9.08;;
20976;SDS011;10647;51.016;3.720;2023-06-10T07:33:44;11.10;;;9.18;;
20976;SDS011;10647;51.016;3.720;2023-06-10T07:36:14;10.70;;;8.43;;
20976;SDS011;10647;51.016;3.720;2023-06-10T07:38:42;14.43;;;8.83;;
20976;SDS011;10647;51.016;3.720;2023-06-10T07:41:09;12.90;;;8.55;;
20976;SDS011;10647;51.016;3.720;2023-06-10T07:43:38;10.60;;;8.80;;
20976;SDS011;10647;51.016;3.720;2023-06-10T07:46:05;13.10;;;8.50;;
20976;SDS011;10647;51.016;3.720;2023-06-10T07:48:33;9.15;;;8.25;;
20976;SDS011;10647;51.016;3.720;2023-06-10T07:51:00;10.05;;;8.28;;
20976;SDS011;10647;51.016;3.720;2023-06-10T07:53:28;13.18;;;8.70;;
20976;SDS011;10647;51.016;3.720;2023-06-10T07:55:55;12.63;;;8.13;;
20976;SDS011;10647;51.016;3.720;2023-06-10T07:58:23;12.28;;;7.85;;
20976;SDS011;10647;51.016;3.720;2023-06-10T08:00:50;8.75;;;7.65;;
20976;SDS011;10647;51.016;3.720;2023-06-10T08:03:18;10.03;;;7.90;;
20976;SDS011;10647;51.016;3.720;2023-06-10T08:05:45;9.68;;;8.20;;
20976;SDS011;10647;51.016;3.720;2023-06-10T08:08:13;15.48;;;7.90;;
20976;SDS011;10647;51.016;3.720;2023-06-10T08:10:44;8.70;;;7.80;;
20976;SDS011;10647;51.016;3.720;2023-06-10T08:13:11;8.93;;;7.65;;
20976;SDS011;10647;51.016;3.720;2023-06-10T08:15:39;10.82;;;7.45;;
20976;SDS011;10647;51.016;3.720;2023-06-10T08:18:06;9.93;;;6.90;;
20976;SDS011;10647;51.016;3.720;2023-06-10T08:20:34;14.47;;;7.58;;
20976;SDS011;10647;51.016;3.720;2023-06-10T08:23:02;10.28;;;7.58;;
20976;SDS011;10647;51.016;3.720;2023-06-10T08:25:30;13.08;;;7.95;;
20976;SDS011;10647;51.016;3.720;2023-06-10T08:27:57;11.05;;;7.25;;
20976;SDS011;10647;51.016;3.720;2023-06-10T08:30:25;11.00;;;7.55;;
20976;SDS011;10647;51.016;3.720;2023-06-10T08:32:52;8.98;;;7.05;;
20976;SDS011;10647;51.016;3.720;2023-06-10T08:35:23;10.55;;;7.17;;
20976;SDS011;10647;51.016;3.720;2023-06-10T08:37:50;11.97;;;6.97;;
20976;SDS011;10647;51.016;3.720;2023-06-10T08:43:06;12.20;;;7.28;;
20976;SDS011;10647;51.016;3.720;2023-06-10T08:45:35;14.25;;;7.25;;
20976;SDS011;10647;51.016;3.720;2023-06-10T08:48:03;13.93;;;7.42;;
20976;SDS011;10647;51.016;3.720;2023-06-10T08:50:36;14.28;;;7.58;;
20976;SDS011;10647;51.016;3.720;2023-06-10T08:53:05;9.63;;;6.85;;
20976;SDS011;10647;51.016;3.720;2023-06-10T08:55:35;10.18;;;7.42;;
20976;SDS011;10647;51.016;3.720;2023-06-10T08:58:04;11.08;;;7.42;;
20976;SDS011;10647;51.016;3.720;2023-06-10T09:00:31;12.35;;;7.12;;
20976;SDS011;10647;51.016;3.720;2023-06-10T09:03:00;8.43;;;6.47;;
20976;SDS011;10647;51.016;3.720;2023-06-10T09:05:34;11.90;;;7.15;;
20976;SDS011;10647;51.016;3.720;2023-06-10T09:08:02;11.33;;;7.08;;
20976;SDS011;10647;51.016;3.720;2023-06-10T09:10:30;11.75;;;6.75;;
20976;SDS011;10647;51.016;3.720;2023-06-10T09:12:59;12.93;;;6.67;;
20976;SDS011;10647;51.016;3.720;2023-06-10T09:15:26;10.40;;;7.37;;
20976;SDS011;10647;51.016;3.720;2023-06-10T09:17:54;10.90;;;7.30;;
20976;SDS011;10647;51.016;3.720;2023-06-10T09:20:22;8.95;;;6.25;;
20976;SDS011;10647;51.016;3.720;2023-06-10T09:22:50;8.68;;;6.20;;
20976;SDS011;10647;51.016;3.720;2023-06-10T09:25:18;14.63;;;6.75;;
20976;SDS011;10647;51.016;3.720;2023-06-10T09:27:52;10.90;;;6.80;;
20976;SDS011;10647;51.016;3.720;2023-06-10T09:30:26;7.45;;;6.65;;
20976;SDS011;10647;51.016;3.720;2023-06-10T09:32:59;11.03;;;7.10;;
20976;SDS011;10647;51.016;3.720;2023-06-10T09:35:29;8.88;;;6.60;;
20976;SDS011;10647;51.016;3.720;2023-06-10T09:37:58;8.35;;;6.62;;
20976;SDS011;10647;51.016;3.720;2023-06-10T09:40:26;9.45;;;7.03;;
20976;SDS011;10647;51.016;3.720;2023-06-10T09:43:00;11.95;;;6.47;;
20976;SDS011;10647;51.016;3.720;2023-06-10T09:45:29;11.60;;;6.83;;
20976;SDS011;10647;51.016;3.720;2023-06-10T09:47:57;8.90;;;6.22;;
20976;SDS011;10647;51.016;3.720;2023-06-10T09:50:24;8.18;;;6.40;;
20976;SDS011;10647;51.016;3.720;2023-06-10T09:52:52;10.95;;;6.12;;
20976;SDS011;10647;51.016;3.720;2023-06-10T09:55:20;7.20;;;6.28;;
20976;SDS011;10647;51.016;3.720;2023-06-10T09:57:52;7.83;;;6.35;;
20976;SDS011;10647;51.016;3.720;2023-06-10T10:00:21;8.93;;;6.00;;
20976;SDS011;10647;51.016;3.720;2023-06-10T10:02:50;11.95;;;6.67;;
20976;SDS011;10647;51.016;3.720;2023-06-10T10:05:21;6.83;;;6.12;;
20976;SDS011;10647;51.016;3.720;2023-06-10T10:07:49;9.78;;;6.25;;
20976;SDS011;10647;51.016;3.720;2023-06-10T10:10:19;7.42;;;5.67;;
20976;SDS011;10647;51.016;3.720;2023-06-10T10:12:47;9.48;;;6.22;;
20976;SDS011;10647;51.016;3.720;2023-06-10T10:15:17;7.22;;;5.80;;
20976;SDS011;10647;51.016;3.720;2023-06-10T10:17:52;9.45;;;6.40;;
20976;SDS011;10647;51.016;3.720;2023-06-10T10:20:26;8.83;;;6.60;;
20976;SDS011;10647;51.016;3.720;2023-06-10T10:22:58;10.32;;;6.37;;
20976;SDS011;10647;51.016;3.720;2023-06-10T10:25:37;8.25;;;6.22;;
20976;SDS011;10647;51.016;3.720;2023-06-10T10:28:08;6.72;;;5.85;;
20976;SDS011;10647;51.016;3.720;2023-06-10T10:30:46;8.83;;;5.87;;
20976;SDS011;10647;51.016;3.720;2023-06-10T10:33:19;9.35;;;5.30;;
20976;SDS011;10647;51.016;3.720;2023-06-10T10:35:49;8.13;;;5.55;;
20976;SDS011;10647;51.016;3.720;2023-06-10T10:38:18;5.97;;;5.15;;
20976;SDS011;10647;51.016;3.720;2023-06-10T10:40:46;10.53;;;5.70;;
20976;SDS011;10647;51.016;3.720;2023-06-10T10:43:15;7.42;;;5.53;;
20976;SDS011;10647;51.016;3.720;2023-06-10T10:45:45;7.62;;;5.78;;
20976;SDS011;10647;51.016;3.720;2023-06-10T10:48:13;10.30;;;5.70;;
20976;SDS011;10647;51.016;3.720;2023-06-10T10:50:42;7.08;;;5.40;;
20976;SDS011;10647;51.016;3.720;2023-06-10T10:53:10;7.67;;;5.08;;
20976;SDS011;10647;51.016;3.720;2023-06-10T10:55:39;6.15;;;5.15;;
20976;SDS011;10647;51.016;3.720;2023-06-10T10:58:07;7.58;;;4.90;;
20976;SDS011;10647;51.016;3.720;2023-06-10T11:00:46;5.80;;;5.17;;
20976;SDS011;10647;51.016;3.720;2023-06-10T11:03:16;11.18;;;5.25;;
20976;SDS011;10647;51.016;3.720;2023-06-10T11:05:47;5.50;;;4.90;;
20976;SDS011;10647;51.016;3.720;2023-06-10T11:11:02;7.78;;;5.00;;
20976;SDS011;10647;51.016;3.720;2023-06-10T11:16:39;5.28;;;4.78;;
20976;SDS011;10647;51.016;3.720;2023-06-10T11:19:08;7.50;;;5.20;;
20976;SDS011;10647;51.016;3.720;2023-06-10T11:24:27;6.40;;;4.90;;
20976;SDS011;10647;51.016;3.720;2023-06-10T11:27:14;6.72;;;4.85;;
20976;SDS011;10647;51.016;3.720;2023-06-10T11:29:29;7.28;;;5.00;;
20976;SDS011;10647;51.016;3.720;2023-06-10T11:31:57;6.35;;;4.78;;
20976;SDS011;10647;51.016;3.720;2023-06-10T11:34:24;12.13;;;6.03;;
20976;SDS011;10647;51.016;3.720;2023-06-10T11:36:53;7.28;;;4.62;;
20976;SDS011;10647;51.016;3.720;2023-06-10T11:39:21;5.55;;;4.50;;
20976;SDS011;10647;51.016;3.720;2023-06-10T11:41:52;5.20;;;4.70;;
20976;SDS011;10647;51.016;3.720;2023-06-10T11:46:51;8.50;;;4.60;;
20976;SDS011;10647;51.016;3.720;2023-06-10T11:49:20;6.05;;;4.83;;
20976;SDS011;10647;51.016;3.720;2023-06-10T11:51:47;5.28;;;4.70;;
20976;SDS011;10647;51.016;3.720;2023-06-10T11:54:16;6.85;;;4.87;;
20976;SDS011;10647;51.016;3.720;2023-06-10T11:56:44;7.47;;;4.45;;
20976;SDS011;10647;51.016;3.720;2023-06-10T11:59:13;8.05;;;4.95;;
20976;SDS011;10647;51.016;3.720;2023-06-10T12:01:44;6.25;;;4.40;;
20976;SDS011;10647;51.016;3.720;2023-06-10T12:04:12;7.62;;;4.70;;
20976;SDS011;10647;51.016;3.720;2023-06-10T12:06:41;5.70;;;4.83;;
20976;SDS011;10647;51.016;3.720;2023-06-10T12:09:17;8.98;;;4.75;;
20976;SDS011;10647;51.016;3.720;2023-06-10T12:11:50;6.92;;;4.53;;
20976;SDS011;10647;51.016;3.720;2023-06-10T12:20:03;8.88;;;4.75;;
20976;SDS011;10647;51.016;3.720;2023-06-10T12:22:39;10.10;;;4.85;;
20976;SDS011;10647;51.016;3.720;2023-06-10T12:25:08;5.03;;;4.42;;
20976;SDS011;10647;51.016;3.720;2023-06-10T12:27:37;4.35;;;3.83;;
20976;SDS011;10647;51.016;3.720;2023-06-10T12:30:18;7.35;;;4.37;;
20976;SDS011;10647;51.016;3.720;2023-06-10T12:32:42;5.33;;;4.30;;
20976;SDS011;10647;51.016;3.720;2023-06-10T12:35:12;4.47;;;4.08;;
20976;SDS011;10647;51.016;3.720;2023-06-10T12:37:41;6.47;;;4.60;;
20976;SDS011;10647;51.016;3.720;2023-06-10T12:40:09;5.28;;;4.58;;
20976;SDS011;10647;51.016;3.720;2023-06-10T12:42:37;7.78;;;4.75;;
20976;SDS011;10647;51.016;3.720;2023-06-10T12:45:07;8.20;;;4.35;;
20976;SDS011;10647;51.016;3.720;2023-06-10T12:47:36;5.97;;;4.70;;
20976;SDS011;10647;51.016;3.720;2023-06-10T12:50:05;9.93;;;4.95;;
20976;SDS011;10647;51.016;3.720;2023-06-10T12:52:33;6.62;;;5.30;;
20976;SDS011;10647;51.016;3.720;2023-06-10T12:55:01;6.80;;;4.83;;
20976;SDS011;10647;51.016;3.720;2023-06-10T12:57:29;6.67;;;4.70;;
20976;SDS011;10647;51.016;3.720;2023-06-10T12:59:57;6.55;;;4.60;;
20976;SDS011;10647;51.016;3.720;2023-06-10T13:02:26;8.60;;;4.80;;
20976;SDS011;10647;51.016;3.720;2023-06-10T13:04:54;5.17;;;4.25;;
20976;SDS011;10647;51.016;3.720;2023-06-10T13:07:21;7.15;;;3.98;;
20976;SDS011;10647;51.016;3.720;2023-06-10T13:09:51;6.53;;;3.90;;
20976;SDS011;10647;51.016;3.720;2023-06-10T13:12:19;4.78;;;3.83;;
20976;SDS011;10647;51.016;3.720;2023-06-10T13:14:46;4.90;;;3.83;;
20976;SDS011;10647;51.016;3.720;2023-06-10T13:17:15;5.55;;;3.60;;
20976;SDS011;10647;51.016;3.720;2023-06-10T13:19:43;4.95;;;3.67;;
20976;SDS011;10647;51.016;3.720;2023-06-10T13:22:11;3.90;;;3.58;;
20976;SDS011;10647;51.016;3.720;2023-06-10T13:24:39;6.55;;;3.75;;
20976;SDS011;10647;51.016;3.720;2023-06-10T13:27:08;6.95;;;3.65;;
20976;SDS011;10647;51.016;3.720;2023-06-10T13:29:36;5.47;;;3.40;;
20976;SDS011;10647;51.016;3.720;2023-06-10T13:32:04;4.03;;;3.33;;
20976;SDS011;10647;51.016;3.720;2023-06-10T13:34:32;7.22;;;3.70;;
20976;SDS011;10647;51.016;3.720;2023-06-10T13:37:00;9.73;;;3.77;;
20976;SDS011;10647;51.016;3.720;2023-06-10T13:39:29;4.50;;;3.17;;
20976;SDS011;10647;51.016;3.720;2023-06-10T13:41:58;5.70;;;3.40;;
20976;SDS011;10647;51.016;3.720;2023-06-10T13:44:26;6.45;;;3.47;;
20976;SDS011;10647;51.016;3.720;2023-06-10T13:46:55;5.35;;;3.90;;
20976;SDS011;10647;51.016;3.720;2023-06-10T13:49:23;4.55;;;3.25;;
20976;SDS011;10647;51.016;3.720;2023-06-10T13:51:51;5.55;;;3.75;;
20976;SDS011;10647;51.016;3.720;2023-06-10T13:54:18;6.58;;;3.40;;
20976;SDS011;10647;51.016;3.720;2023-06-10T13:56:47;4.65;;;3.50;;
20976;SDS011;10647;51.016;3.720;2023-06-10T13:59:14;4.25;;;3.42;;
20976;SDS011;10647;51.016;3.720;2023-06-10T14:01:42;6.42;;;3.42;;
20976;SDS011;10647;51.016;3.720;2023-06-10T14:04:10;6.05;;;3.35;;
20976;SDS011;10647;51.016;3.720;2023-06-10T14:06:38;4.72;;;3.42;;
20976;SDS011;10647;51.016;3.720;2023-06-10T14:09:05;5.47;;;3.83;;
20976;SDS011;10647;51.016;3.720;2023-06-10T14:11:35;4.12;;;3.52;;
20976;SDS011;10647;51.016;3.720;2023-06-10T14:14:03;7.70;;;3.85;;
20976;SDS011;10647;51.016;3.720;2023-06-10T14:16:31;3.83;;;3.52;;
20976;SDS011;10647;51.016;3.720;2023-06-10T14:18:59;4.53;;;3.70;;
20976;SDS011;10647;51.016;3.720;2023-06-10T14:21:28;3.87;;;3.50;;
20976;SDS011;10647;51.016;3.720;2023-06-10T14:23:55;5.80;;;3.65;;
20976;SDS011;10647;51.016;3.720;2023-06-10T14:26:23;6.28;;;3.90;;
20976;SDS011;10647;51.016;3.720;2023-06-10T14:28:52;6.35;;;3.90;;
20976;SDS011;10647;51.016;3.720;2023-06-10T14:31:19;4.40;;;3.50;;
20976;SDS011;10647;51.016;3.720;2023-06-10T14:33:47;6.90;;;3.72;;
20976;SDS011;10647;51.016;3.720;2023-06-10T14:36:14;7.03;;;3.75;;
20976;SDS011;10647;51.016;3.720;2023-06-10T14:38:42;6.08;;;3.55;;
20976;SDS011;10647;51.016;3.720;2023-06-10T14:43:41;5.35;;;3.75;;
20976;SDS011;10647;51.016;3.720;2023-06-10T14:46:09;4.58;;;3.47;;
20976;SDS011;10647;51.016;3.720;2023-06-10T14:48:37;5.05;;;3.90;;
20976;SDS011;10647;51.016;3.720;2023-06-10T14:51:05;4.70;;;3.58;;
20976;SDS011;10647;51.016;3.720;2023-06-10T14:53:33;5.80;;;3.80;;
20976;SDS011;10647;51.016;3.720;2023-06-10T14:56:01;12.98;;;4.05;;
20976;SDS011;10647;51.016;3.720;2023-06-10T14:58:28;6.25;;;4.10;;
20976;SDS011;10647;51.016;3.720;2023-06-10T15:00:56;7.65;;;3.90;;
20976;SDS011;10647;51.016;3.720;2023-06-10T15:03:23;5.37;;;3.70;;
20976;SDS011;10647;51.016;3.720;2023-06-10T15:05:51;5.92;;;3.80;;
20976;SDS011;10647;51.016;3.720;2023-06-10T15:08:18;4.25;;;3.72;;
20976;SDS011;10647;51.016;3.720;2023-06-10T15:10:46;4.62;;;3.37;;
20976;SDS011;10647;51.016;3.720;2023-06-10T15:13:15;5.75;;;3.45;;
20976;SDS011;10647;51.016;3.720;2023-06-10T15:15:43;6.10;;;3.72;;
20976;SDS011;10647;51.016;3.720;2023-06-10T15:18:10;5.08;;;3.62;;
20976;SDS011;10647;51.016;3.720;2023-06-10T15:20:38;4.30;;;3.72;;
20976;SDS011;10647;51.016;3.720;2023-06-10T15:23:05;5.60;;;3.62;;
20976;SDS011;10647;51.016;3.720;2023-06-10T15:25:33;3.77;;;3.47;;
20976;SDS011;10647;51.016;3.720;2023-06-10T15:28:01;4.25;;;3.25;;
20976;SDS011;10647;51.016;3.720;2023-06-10T15:30:29;3.72;;;3.30;;
20976;SDS011;10647;51.016;3.720;2023-06-10T15:32:57;6.85;;;3.72;;
20976;SDS011;10647;51.016;3.720;2023-06-10T15:35:24;4.35;;;3.40;;
20976;SDS011;10647;51.016;3.720;2023-06-10T15:37:52;3.85;;;3.50;;
20976;SDS011;10647;51.016;3.720;2023-06-10T15:40:20;4.92;;;3.47;;
20976;SDS011;10647;51.016;3.720;2023-06-10T15:42:47;6.08;;;3.40;;
20976;SDS011;10647;51.016;3.720;2023-06-10T15:45:15;8.30;;;3.62;;
20976;SDS011;10647;51.016;3.720;2023-06-10T15:47:48;4.70;;;3.45;;